sensor_id;sensor_type;location;lat;lon;timestamp;temperature;humidity
19248;DHT22;9758;48.640;8.148;2024-02-21T00:02:23;10.00;60.30
19248;DHT22;9758;48.640;8.148;2024-02-21T00:04:50;10.00;60.30
19248;DHT22;9758;48.640;8.148;2024-02-21T00:07:17;10.10;60.40
19248;DHT22;9758;48.640;8.148;2024-02-21T00:09:47;10.00;60.30
19248;DHT22;9758;48.640;8.148;2024-02-21T00:12:16;10.00;60.30
19248;DHT22;9758;48.640;8.148;2024-02-21T00:14:42;10.10;60.40
19248;DHT22;9758;48.640;8.148;2024-02-21T00:17:09;10.10;60.40
19248;DHT22;9758;48.640;8.148;2024-02-21T00:19:36;10.10;60.40
19248;DHT22;9758;48.640;8.148;2024-02-21T00:22:02;10.10;60.40
19248;DHT22;9758;48.640;8.148;2024-02-21T00:24:29;10.10;60.40
19248;DHT22;9758;48.640;8.148;2024-02-21T00:26:56;10.10;60.30
19248;DHT22;9758;48.640;8.148;2024-02-21T00:29:24;10.10;60.30
19248;DHT22;9758;48.640;8.148;2024-02-21T00:31:51;10.10;60.40
19248;DHT22;9758;48.640;8.148;2024-02-21T00:34:18;10.20;60.40
19248;DHT22;9758;48.640;8.148;2024-02-21T00:36:44;10.20;60.30
19248;DHT22;9758;48.640;8.148;2024-02-21T00:39:11;10.20;60.20
19248;DHT22;9758;48.640;8.148;2024-02-21T00:41:38;10.20;60.20
19248;DHT22;9758;48.640;8.148;2024-02-21T00:44:04;10.20;60.20
19248;DHT22;9758;48.640;8.148;2024-02-21T00:46:33;10.20;60.20
19248;DHT22;9758;48.640;8.148;2024-02-21T00:49:00;10.20;60.20
19248;DHT22;9758;48.640;8.148;2024-02-21T00:51:26;10.20;60.20
19248;DHT22;9758;48.640;8.148;2024-02-21T00:53:53;10.20;60.20
19248;DHT22;9758;48.640;8.148;2024-02-21T00:56:20;10.20;60.20
19248;DHT22;9758;48.640;8.148;2024-02-21T00:58:47;10.20;60.20
19248;DHT22;9758;48.640;8.148;2024-02-21T01:01:21;10.20;60.20
19248;DHT22;9758;48.640;8.148;2024-02-21T01:03:49;10.20;60.40
19248;DHT22;9758;48.640;8.148;2024-02-21T01:06:16;10.30;60.30
19248;DHT22;9758;48.640;8.148;2024-02-21T01:08:43;10.30;60.30
19248;DHT22;9758;48.640;8.148;2024-02-21T01:11:09;10.30;60.20
19248;DHT22;9758;48.640;8.148;2024-02-21T01:13:36;10.30;60.20
19248;DHT22;9758;48.640;8.148;2024-02-21T01:16:03;10.30;60.20
19248;DHT22;9758;48.640;8.148;2024-02-21T01:18:32;10.30;60.20
19248;DHT22;9758;48.640;8.148;2024-02-21T01:21:00;10.30;60.20
19248;DHT22;9758;48.640;8.148;2024-02-21T01:23:26;10.30;60.10
19248;DHT22;9758;48.640;8.148;2024-02-21T01:25:53;10.40;60.20
19248;DHT22;9758;48.640;8.148;2024-02-21T01:28:20;10.40;60.20
19248;DHT22;9758;48.640;8.148;2024-02-21T01:30:47;10.40;60.20
19248;DHT22;9758;48.640;8.148;2024-02-21T01:33:14;10.40;60.10
19248;DHT22;9758;48.640;8.148;2024-02-21T01:35:41;10.40;60.10
19248;DHT22;9758;48.640;8.148;2024-02-21T01:38:09;10.40;60.10
19248;DHT22;9758;48.640;8.148;2024-02-21T01:40:36;10.40;60.10
19248;DHT22;9758;48.640;8.148;2024-02-21T01:43:03;10.40;60.10
19248;DHT22;9758;48.640;8.148;2024-02-21T01:45:29;10.40;60.10
19248;DHT22;9758;48.640;8.148;2024-02-21T01:47:56;10.40;60.10
19248;DHT22;9758;48.640;8.148;2024-02-21T01:50:23;10.40;60.10
19248;DHT22;9758;48.640;8.148;2024-02-21T01:52:50;10.40;60.10
19248;DHT22;9758;48.640;8.148;2024-02-21T01:55:19;10.40;60.10
19248;DHT22;9758;48.640;8.148;2024-02-21T01:57:46;10.40;60.10
19248;DHT22;9758;48.640;8.148;2024-02-21T02:00:14;10.40;60.10
19248;DHT22;9758;48.640;8.148;2024-02-21T02:02:42;10.40;60.00
19248;DHT22;9758;48.640;8.148;2024-02-21T02:05:09;10.40;60.20
19248;DHT22;9758;48.640;8.148;2024-02-21T02:07:37;10.40;60.10
19248;DHT22;9758;48.640;8.148;2024-02-21T02:10:04;10.40;60.10
19248;DHT22;9758;48.640;8.148;2024-02-21T02:12:33;10.40;60.00
19248;DHT22;9758;48.640;8.148;2024-02-21T02:15:00;10.40;60.00
19248;DHT22;9758;48.640;8.148;2024-02-21T02:17:30;10.30;60.00
19248;DHT22;9758;48.640;8.148;2024-02-21T02:19:57;10.30;60.00
19248;DHT22;9758;48.640;8.148;2024-02-21T02:22:28;10.40;60.00
19248;DHT22;9758;48.640;8.148;2024-02-21T02:24:56;10.40;60.00
19248;DHT22;9758;48.640;8.148;2024-02-21T02:27:23;10.40;60.00
19248;DHT22;9758;48.640;8.148;2024-02-21T02:29:50;10.40;60.00
19248;DHT22;9758;48.640;8.148;2024-02-21T02:32:17;10.40;60.00
19248;DHT22;9758;48.640;8.148;2024-02-21T02:34:44;10.40;60.00
19248;DHT22;9758;48.640;8.148;2024-02-21T02:37:11;10.40;60.00
19248;DHT22;9758;48.640;8.148;2024-02-21T02:39:37;10.40;60.00
19248;DHT22;9758;48.640;8.148;2024-02-21T02:42:06;10.40;60.00
19248;DHT22;9758;48.640;8.148;2024-02-21T02:44:32;10.40;60.00
19248;DHT22;9758;48.640;8.148;2024-02-21T02:46:59;10.40;60.50
19248;DHT22;9758;48.640;8.148;2024-02-21T02:49:26;10.40;60.00
19248;DHT22;9758;48.640;8.148;2024-02-21T02:51:53;10.40;60.00
19248;DHT22;9758;48.640;8.148;2024-02-21T02:54:19;10.40;60.00
19248;DHT22;9758;48.640;8.148;2024-02-21T02:56:46;10.40;59.90
19248;DHT22;9758;48.640;8.148;2024-02-21T02:59:14;10.40;59.90
19248;DHT22;9758;48.640;8.148;2024-02-21T03:01:41;10.40;59.90
19248;DHT22;9758;48.640;8.148;2024-02-21T03:04:07;10.30;59.80
19248;DHT22;9758;48.640;8.148;2024-02-21T03:06:34;10.30;59.80
19248;DHT22;9758;48.640;8.148;2024-02-21T03:09:01;10.30;59.80
19248;DHT22;9758;48.640;8.148;2024-02-21T03:11:33;10.20;59.80
19248;DHT22;9758;48.640;8.148;2024-02-21T03:14:00;10.20;59.80
19248;DHT22;9758;48.640;8.148;2024-02-21T03:16:28;10.10;59.80
19248;DHT22;9758;48.640;8.148;2024-02-21T03:18:55;10.10;59.80
19248;DHT22;9758;48.640;8.148;2024-02-21T03:21:22;10.10;59.90
19248;DHT22;9758;48.640;8.148;2024-02-21T03:23:48;10.00;59.80
19248;DHT22;9758;48.640;8.148;2024-02-21T03:26:15;10.00;59.80
19248;DHT22;9758;48.640;8.148;2024-02-21T03:28:42;9.90;59.80
19248;DHT22;9758;48.640;8.148;2024-02-21T03:31:11;9.90;59.90
19248;DHT22;9758;48.640;8.148;2024-02-21T03:33:39;9.90;59.90
19248;DHT22;9758;48.640;8.148;2024-02-21T03:36:07;9.90;59.90
19248;DHT22;9758;48.640;8.148;2024-02-21T03:38:39;9.90;59.90
19248;DHT22;9758;48.640;8.148;2024-02-21T03:41:05;9.90;59.80
19248;DHT22;9758;48.640;8.148;2024-02-21T03:43:32;9.90;59.80
19248;DHT22;9758;48.640;8.148;2024-02-21T03:45:59;9.80;59.80
19248;DHT22;9758;48.640;8.148;2024-02-21T03:48:26;9.80;59.90
19248;DHT22;9758;48.640;8.148;2024-02-21T03:50:54;9.70;59.70
19248;DHT22;9758;48.640;8.148;2024-02-21T03:53:21;9.70;59.90
19248;DHT22;9758;48.640;8.148;2024-02-21T03:55:48;9.70;60.00
19248;DHT22;9758;48.640;8.148;2024-02-21T03:58:14;9.70;60.00
19248;DHT22;9758;48.640;8.148;2024-02-21T04:00:41;9.70;60.00
19248;DHT22;9758;48.640;8.148;2024-02-21T04:03:08;9.70;60.00
19248;DHT22;9758;48.640;8.148;2024-02-21T04:05:34;9.70;60.00
19248;DHT22;9758;48.640;8.148;2024-02-21T04:08:05;9.70;60.00
19248;DHT22;9758;48.640;8.148;2024-02-21T04:10:32;9.70;59.90
19248;DHT22;9758;48.640;8.148;2024-02-21T04:12:59;9.70;59.90
19248;DHT22;9758;48.640;8.148;2024-02-21T04:15:25;9.60;59.90
19248;DHT22;9758;48.640;8.148;2024-02-21T04:17:52;9.60;59.90
19248;DHT22;9758;48.640;8.148;2024-02-21T04:20:19;9.60;59.90
19248;DHT22;9758;48.640;8.148;2024-02-21T04:22:46;9.50;59.80
19248;DHT22;9758;48.640;8.148;2024-02-21T04:25:14;9.50;59.80
19248;DHT22;9758;48.640;8.148;2024-02-21T04:27:41;9.50;59.90
19248;DHT22;9758;48.640;8.148;2024-02-21T04:30:08;9.50;59.90
19248;DHT22;9758;48.640;8.148;2024-02-21T04:32:35;9.40;59.90
19248;DHT22;9758;48.640;8.148;2024-02-21T04:35:02;9.40;59.90
19248;DHT22;9758;48.640;8.148;2024-02-21T04:37:29;9.40;59.90
19248;DHT22;9758;48.640;8.148;2024-02-21T04:39:56;9.30;59.80
19248;DHT22;9758;48.640;8.148;2024-02-21T04:42:24;9.30;59.90
19248;DHT22;9758;48.640;8.148;2024-02-21T04:44:51;9.30;59.90
19248;DHT22;9758;48.640;8.148;2024-02-21T04:47:18;9.20;59.90
19248;DHT22;9758;48.640;8.148;2024-02-21T04:49:45;9.20;59.90
19248;DHT22;9758;48.640;8.148;2024-02-21T04:52:12;9.20;60.00
19248;DHT22;9758;48.640;8.148;2024-02-21T04:54:38;9.10;59.90
19248;DHT22;9758;48.640;8.148;2024-02-21T04:57:05;9.10;59.90
19248;DHT22;9758;48.640;8.148;2024-02-21T04:59:34;9.10;59.90
19248;DHT22;9758;48.640;8.148;2024-02-21T05:02:01;9.10;60.00
19248;DHT22;9758;48.640;8.148;2024-02-21T05:04:28;9.10;60.00
19248;DHT22;9758;48.640;8.148;2024-02-21T05:06:54;9.10;60.00
19248;DHT22;9758;48.640;8.148;2024-02-21T05:09:21;9.10;60.00
19248;DHT22;9758;48.640;8.148;2024-02-21T05:11:48;9.00;59.90
19248;DHT22;9758;48.640;8.148;2024-02-21T05:14:14;9.00;60.00
19248;DHT22;9758;48.640;8.148;2024-02-21T05:16:42;9.00;60.00
19248;DHT22;9758;48.640;8.148;2024-02-21T05:19:09;9.00;60.00
19248;DHT22;9758;48.640;8.148;2024-02-21T05:21:36;9.00;60.00
19248;DHT22;9758;48.640;8.148;2024-02-21T05:24:03;8.90;60.00
19248;DHT22;9758;48.640;8.148;2024-02-21T05:26:30;8.90;60.00
19248;DHT22;9758;48.640;8.148;2024-02-21T05:28:56;8.90;60.00
19248;DHT22;9758;48.640;8.148;2024-02-21T05:31:24;9.00;60.20
19248;DHT22;9758;48.640;8.148;2024-02-21T05:33:53;9.00;60.00
19248;DHT22;9758;48.640;8.148;2024-02-21T05:36:19;9.00;60.00
19248;DHT22;9758;48.640;8.148;2024-02-21T05:38:46;9.00;60.00
19248;DHT22;9758;48.640;8.148;2024-02-21T05:41:12;9.00;60.00
19248;DHT22;9758;48.640;8.148;2024-02-21T05:43:40;9.10;60.00
19248;DHT22;9758;48.640;8.148;2024-02-21T05:46:07;9.10;60.00
19248;DHT22;9758;48.640;8.148;2024-02-21T05:48:33;9.10;60.00
19248;DHT22;9758;48.640;8.148;2024-02-21T05:51:03;9.10;59.90
19248;DHT22;9758;48.640;8.148;2024-02-21T05:53:30;9.10;59.90
19248;DHT22;9758;48.640;8.148;2024-02-21T05:55:56;9.10;59.90
19248;DHT22;9758;48.640;8.148;2024-02-21T05:58:23;9.10;59.90
19248;DHT22;9758;48.640;8.148;2024-02-21T06:00:50;9.10;60.00
19248;DHT22;9758;48.640;8.148;2024-02-21T06:03:16;9.10;59.90
19248;DHT22;9758;48.640;8.148;2024-02-21T06:05:43;9.10;59.90
19248;DHT22;9758;48.640;8.148;2024-02-21T06:08:11;9.10;59.90
19248;DHT22;9758;48.640;8.148;2024-02-21T06:10:38;9.10;59.90
19248;DHT22;9758;48.640;8.148;2024-02-21T06:13:04;9.10;59.90
19248;DHT22;9758;48.640;8.148;2024-02-21T06:15:31;9.10;59.90
19248;DHT22;9758;48.640;8.148;2024-02-21T06:17:58;9.10;59.90
19248;DHT22;9758;48.640;8.148;2024-02-21T06:20:24;9.10;59.90
19248;DHT22;9758;48.640;8.148;2024-02-21T06:22:51;9.10;59.90
19248;DHT22;9758;48.640;8.148;2024-02-21T06:25:19;9.10;59.90
19248;DHT22;9758;48.640;8.148;2024-02-21T06:27:46;9.10;60.00
19248;DHT22;9758;48.640;8.148;2024-02-21T06:30:13;9.10;59.90
19248;DHT22;9758;48.640;8.148;2024-02-21T06:32:52;9.20;60.00
19248;DHT22;9758;48.640;8.148;2024-02-21T06:35:21;9.20;60.00
19248;DHT22;9758;48.640;8.148;2024-02-21T06:37:49;9.20;60.00
19248;DHT22;9758;48.640;8.148;2024-02-21T06:40:21;9.20;60.00
19248;DHT22;9758;48.640;8.148;2024-02-21T06:42:47;9.20;59.90
19248;DHT22;9758;48.640;8.148;2024-02-21T06:45:14;9.20;59.90
19248;DHT22;9758;48.640;8.148;2024-02-21T06:47:41;9.30;59.90
19248;DHT22;9758;48.640;8.148;2024-02-21T06:50:09;9.30;60.00
19248;DHT22;9758;48.640;8.148;2024-02-21T06:52:35;9.30;59.90
19248;DHT22;9758;48.640;8.148;2024-02-21T06:55:03;9.30;59.90
19248;DHT22;9758;48.640;8.148;2024-02-21T06:57:31;9.40;60.00
19248;DHT22;9758;48.640;8.148;2024-02-21T06:59:57;9.40;60.00
19248;DHT22;9758;48.640;8.148;2024-02-21T07:02:24;9.50;60.00
19248;DHT22;9758;48.640;8.148;2024-02-21T07:04:51;9.50;60.00
19248;DHT22;9758;48.640;8.148;2024-02-21T07:07:17;9.60;59.90
19248;DHT22;9758;48.640;8.148;2024-02-21T07:09:44;9.60;60.00
19248;DHT22;9758;48.640;8.148;2024-02-21T07:12:13;9.70;59.80
19248;DHT22;9758;48.640;8.148;2024-02-21T07:14:41;9.70;59.80
19248;DHT22;9758;48.640;8.148;2024-02-21T07:17:08;9.70;59.80
19248;DHT22;9758;48.640;8.148;2024-02-21T07:19:35;9.80;59.80
19248;DHT22;9758;48.640;8.148;2024-02-21T07:22:02;9.90;59.80
19248;DHT22;9758;48.640;8.148;2024-02-21T07:24:28;9.90;59.80
19248;DHT22;9758;48.640;8.148;2024-02-21T07:26:57;10.00;59.80
19248;DHT22;9758;48.640;8.148;2024-02-21T07:29:29;10.00;59.80
19248;DHT22;9758;48.640;8.148;2024-02-21T07:31:57;10.00;59.60
19248;DHT22;9758;48.640;8.148;2024-02-21T07:34:24;10.10;59.80
19248;DHT22;9758;48.640;8.148;2024-02-21T07:36:51;10.10;59.70
19248;DHT22;9758;48.640;8.148;2024-02-21T07:39:31;10.20;59.80
19248;DHT22;9758;48.640;8.148;2024-02-21T07:42:02;10.20;59.70
19248;DHT22;9758;48.640;8.148;2024-02-21T07:44:28;10.30;59.60
19248;DHT22;9758;48.640;8.148;2024-02-21T07:46:58;10.40;59.70
19248;DHT22;9758;48.640;8.148;2024-02-21T07:49:26;10.40;59.70
19248;DHT22;9758;48.640;8.148;2024-02-21T07:51:53;10.40;59.60
19248;DHT22;9758;48.640;8.148;2024-02-21T07:54:20;10.50;59.60
19248;DHT22;9758;48.640;8.148;2024-02-21T07:56:46;10.60;59.60
19248;DHT22;9758;48.640;8.148;2024-02-21T07:59:13;10.60;59.60
19248;DHT22;9758;48.640;8.148;2024-02-21T08:01:40;10.70;59.60
19248;DHT22;9758;48.640;8.148;2024-02-21T08:04:09;10.80;59.60
19248;DHT22;9758;48.640;8.148;2024-02-21T08:06:35;10.90;59.60
19248;DHT22;9758;48.640;8.148;2024-02-21T08:09:02;10.90;59.40
19248;DHT22;9758;48.640;8.148;2024-02-21T08:11:29;11.00;59.40
19248;DHT22;9758;48.640;8.148;2024-02-21T08:13:55;11.00;59.30
19248;DHT22;9758;48.640;8.148;2024-02-21T08:16:23;11.10;59.30
19248;DHT22;9758;48.640;8.148;2024-02-21T08:18:51;11.10;59.10
19248;DHT22;9758;48.640;8.148;2024-02-21T08:21:19;11.20;59.20
19248;DHT22;9758;48.640;8.148;2024-02-21T08:23:45;11.20;59.30
19248;DHT22;9758;48.640;8.148;2024-02-21T08:26:16;11.30;59.10
19248;DHT22;9758;48.640;8.148;2024-02-21T08:28:44;11.40;59.00
19248;DHT22;9758;48.640;8.148;2024-02-21T08:31:11;11.40;59.10
19248;DHT22;9758;48.640;8.148;2024-02-21T08:33:44;11.40;59.00
19248;DHT22;9758;48.640;8.148;2024-02-21T08:36:18;11.50;58.70
19248;DHT22;9758;48.640;8.148;2024-02-21T08:38:45;11.50;58.90
19248;DHT22;9758;48.640;8.148;2024-02-21T08:41:12;11.50;58.90
19248;DHT22;9758;48.640;8.148;2024-02-21T08:43:39;11.60;58.90
19248;DHT22;9758;48.640;8.148;2024-02-21T08:46:05;11.70;58.80
19248;DHT22;9758;48.640;8.148;2024-02-21T08:48:32;11.70;58.80
19248;DHT22;9758;48.640;8.148;2024-02-21T08:50:59;11.80;58.90
19248;DHT22;9758;48.640;8.148;2024-02-21T08:53:27;11.80;58.80
19248;DHT22;9758;48.640;8.148;2024-02-21T08:55:54;11.90;58.80
19248;DHT22;9758;48.640;8.148;2024-02-21T08:58:21;11.90;58.60
19248;DHT22;9758;48.640;8.148;2024-02-21T09:00:49;12.00;58.60
19248;DHT22;9758;48.640;8.148;2024-02-21T09:03:16;12.10;59.20
19248;DHT22;9758;48.640;8.148;2024-02-21T09:05:43;12.20;58.70
19248;DHT22;9758;48.640;8.148;2024-02-21T09:08:10;12.20;58.60
19248;DHT22;9758;48.640;8.148;2024-02-21T09:10:39;12.30;58.50
19248;DHT22;9758;48.640;8.148;2024-02-21T09:13:06;12.30;58.40
19248;DHT22;9758;48.640;8.148;2024-02-21T09:15:33;12.30;58.30
19248;DHT22;9758;48.640;8.148;2024-02-21T09:18:00;12.40;58.20
19248;DHT22;9758;48.640;8.148;2024-02-21T09:20:26;12.40;58.20
19248;DHT22;9758;48.640;8.148;2024-02-21T09:22:54;12.50;58.30
19248;DHT22;9758;48.640;8.148;2024-02-21T09:25:21;12.50;58.00
19248;DHT22;9758;48.640;8.148;2024-02-21T09:27:49;12.60;58.10
19248;DHT22;9758;48.640;8.148;2024-02-21T09:30:17;12.60;58.20
19248;DHT22;9758;48.640;8.148;2024-02-21T09:32:44;12.70;58.20
19248;DHT22;9758;48.640;8.148;2024-02-21T09:35:11;12.70;58.20
19248;DHT22;9758;48.640;8.148;2024-02-21T09:37:38;12.80;58.10
19248;DHT22;9758;48.640;8.148;2024-02-21T09:40:06;12.90;58.20
19248;DHT22;9758;48.640;8.148;2024-02-21T09:42:37;13.00;58.00
19248;DHT22;9758;48.640;8.148;2024-02-21T09:45:08;13.10;57.90
19248;DHT22;9758;48.640;8.148;2024-02-21T09:47:42;13.10;57.80
19248;DHT22;9758;48.640;8.148;2024-02-21T09:50:10;13.10;57.50
19248;DHT22;9758;48.640;8.148;2024-02-21T09:52:37;13.10;57.60
19248;DHT22;9758;48.640;8.148;2024-02-21T09:55:06;13.20;57.30
19248;DHT22;9758;48.640;8.148;2024-02-21T09:57:34;13.10;57.10
19248;DHT22;9758;48.640;8.148;2024-02-21T10:00:01;13.10;57.10
19248;DHT22;9758;48.640;8.148;2024-02-21T10:02:34;13.10;57.30
19248;DHT22;9758;48.640;8.148;2024-02-21T10:05:02;13.20;57.30
19248;DHT22;9758;48.640;8.148;2024-02-21T10:07:30;13.20;57.40
19248;DHT22;9758;48.640;8.148;2024-02-21T10:10:01;13.30;57.20
19248;DHT22;9758;48.640;8.148;2024-02-21T10:12:28;13.30;56.70
19248;DHT22;9758;48.640;8.148;2024-02-21T10:15:32;13.20;57.00
19248;DHT22;9758;48.640;8.148;2024-02-21T10:18:01;13.20;56.80
19248;DHT22;9758;48.640;8.148;2024-02-21T10:20:29;13.30;56.90
19248;DHT22;9758;48.640;8.148;2024-02-21T10:23:01;13.30;56.30
19248;DHT22;9758;48.640;8.148;2024-02-21T10:25:28;13.30;56.90
19248;DHT22;9758;48.640;8.148;2024-02-21T10:27:55;13.30;56.70
19248;DHT22;9758;48.640;8.148;2024-02-21T10:30:22;13.30;56.60
19248;DHT22;9758;48.640;8.148;2024-02-21T10:32:49;13.40;56.40
19248;DHT22;9758;48.640;8.148;2024-02-21T10:35:27;13.40;56.40
19248;DHT22;9758;48.640;8.148;2024-02-21T10:37:54;13.40;55.80
19248;DHT22;9758;48.640;8.148;2024-02-21T10:40:23;13.50;55.90
19248;DHT22;9758;48.640;8.148;2024-02-21T10:42:52;13.40;56.30
19248;DHT22;9758;48.640;8.148;2024-02-21T10:45:23;13.50;55.30
19248;DHT22;9758;48.640;8.148;2024-02-21T10:47:55;13.50;55.60
19248;DHT22;9758;48.640;8.148;2024-02-21T10:50:26;13.50;55.70
19248;DHT22;9758;48.640;8.148;2024-02-21T10:53:00;13.50;56.10
19248;DHT22;9758;48.640;8.148;2024-02-21T10:55:38;13.60;55.90
19248;DHT22;9758;48.640;8.148;2024-02-21T10:58:09;13.70;56.00
19248;DHT22;9758;48.640;8.148;2024-02-21T11:00:40;13.70;56.10
19248;DHT22;9758;48.640;8.148;2024-02-21T11:03:08;13.80;55.80
19248;DHT22;9758;48.640;8.148;2024-02-21T11:05:37;13.80;56.00
19248;DHT22;9758;48.640;8.148;2024-02-21T11:08:06;13.80;55.70
19248;DHT22;9758;48.640;8.148;2024-02-21T11:10:36;13.80;55.90
19248;DHT22;9758;48.640;8.148;2024-02-21T11:13:07;13.90;55.90
19248;DHT22;9758;48.640;8.148;2024-02-21T11:15:34;13.90;55.20
19248;DHT22;9758;48.640;8.148;2024-02-21T11:18:00;13.90;56.30
19248;DHT22;9758;48.640;8.148;2024-02-21T11:20:34;13.90;56.00
19248;DHT22;9758;48.640;8.148;2024-02-21T11:23:02;13.90;56.20
19248;DHT22;9758;48.640;8.148;2024-02-21T11:25:29;14.00;56.20
19248;DHT22;9758;48.640;8.148;2024-02-21T11:28:01;14.00;56.40
19248;DHT22;9758;48.640;8.148;2024-02-21T11:30:30;14.00;55.90
19248;DHT22;9758;48.640;8.148;2024-02-21T11:33:01;14.00;55.80
19248;DHT22;9758;48.640;8.148;2024-02-21T11:35:31;14.00;56.10
19248;DHT22;9758;48.640;8.148;2024-02-21T11:38:09;14.00;56.50
19248;DHT22;9758;48.640;8.148;2024-02-21T11:40:39;13.90;56.10
19248;DHT22;9758;48.640;8.148;2024-02-21T11:43:06;14.00;56.20
19248;DHT22;9758;48.640;8.148;2024-02-21T11:45:33;14.10;56.30
19248;DHT22;9758;48.640;8.148;2024-02-21T11:47:59;14.20;56.30
19248;DHT22;9758;48.640;8.148;2024-02-21T11:50:29;14.30;56.20
19248;DHT22;9758;48.640;8.148;2024-02-21T11:52:56;14.40;56.00
19248;DHT22;9758;48.640;8.148;2024-02-21T11:58:29;14.50;54.90
19248;DHT22;9758;48.640;8.148;2024-02-21T12:00:56;14.50;55.20
19248;DHT22;9758;48.640;8.148;2024-02-21T12:03:24;14.50;55.00
19248;DHT22;9758;48.640;8.148;2024-02-21T12:05:50;14.40;54.90
19248;DHT22;9758;48.640;8.148;2024-02-21T12:08:17;14.40;55.40
19248;DHT22;9758;48.640;8.148;2024-02-21T12:11:02;14.30;55.40
19248;DHT22;9758;48.640;8.148;2024-02-21T12:13:30;14.30;55.20
19248;DHT22;9758;48.640;8.148;2024-02-21T12:15:57;14.30;55.40
19248;DHT22;9758;48.640;8.148;2024-02-21T12:18:24;14.20;55.70
19248;DHT22;9758;48.640;8.148;2024-02-21T12:20:51;14.20;55.60
19248;DHT22;9758;48.640;8.148;2024-02-21T12:23:19;14.10;55.90
19248;DHT22;9758;48.640;8.148;2024-02-21T12:25:46;14.00;56.20
19248;DHT22;9758;48.640;8.148;2024-02-21T12:28:12;14.00;56.20
19248;DHT22;9758;48.640;8.148;2024-02-21T12:30:40;14.00;56.10
19248;DHT22;9758;48.640;8.148;2024-02-21T12:33:08;14.00;56.20
19248;DHT22;9758;48.640;8.148;2024-02-21T12:35:35;14.00;56.30
19248;DHT22;9758;48.640;8.148;2024-02-21T12:38:01;14.10;56.30
19248;DHT22;9758;48.640;8.148;2024-02-21T12:40:28;14.10;56.20
19248;DHT22;9758;48.640;8.148;2024-02-21T12:42:58;14.20;56.30
19248;DHT22;9758;48.640;8.148;2024-02-21T12:45:25;14.20;56.20
19248;DHT22;9758;48.640;8.148;2024-02-21T12:47:53;14.10;55.80
19248;DHT22;9758;48.640;8.148;2024-02-21T12:50:20;14.00;56.10
19248;DHT22;9758;48.640;8.148;2024-02-21T12:52:48;14.00;56.70
19248;DHT22;9758;48.640;8.148;2024-02-21T12:55:15;14.00;56.20
19248;DHT22;9758;48.640;8.148;2024-02-21T12:57:42;14.00;56.30
19248;DHT22;9758;48.640;8.148;2024-02-21T13:00:09;14.10;56.40
19248;DHT22;9758;48.640;8.148;2024-02-21T13:02:36;14.10;56.10
19248;DHT22;9758;48.640;8.148;2024-02-21T13:05:05;14.10;56.00
19248;DHT22;9758;48.640;8.148;2024-02-21T13:07:41;14.20;56.20
19248;DHT22;9758;48.640;8.148;2024-02-21T13:10:08;14.20;56.30
19248;DHT22;9758;48.640;8.148;2024-02-21T13:12:35;14.20;56.00
19248;DHT22;9758;48.640;8.148;2024-02-21T13:15:02;14.20;56.00
19248;DHT22;9758;48.640;8.148;2024-02-21T13:17:28;14.20;56.00
19248;DHT22;9758;48.640;8.148;2024-02-21T13:19:57;14.20;56.10
19248;DHT22;9758;48.640;8.148;2024-02-21T13:22:25;14.20;56.10
19248;DHT22;9758;48.640;8.148;2024-02-21T13:24:52;14.20;56.20
19248;DHT22;9758;48.640;8.148;2024-02-21T13:27:19;14.20;56.10
19248;DHT22;9758;48.640;8.148;2024-02-21T13:29:45;14.20;56.10
19248;DHT22;9758;48.640;8.148;2024-02-21T13:32:12;14.20;56.10
19248;DHT22;9758;48.640;8.148;2024-02-21T13:34:39;14.20;55.90
19248;DHT22;9758;48.640;8.148;2024-02-21T13:37:07;14.20;56.00
19248;DHT22;9758;48.640;8.148;2024-02-21T13:39:37;14.20;56.00
19248;DHT22;9758;48.640;8.148;2024-02-21T13:42:04;14.20;56.10
19248;DHT22;9758;48.640;8.148;2024-02-21T13:44:31;14.20;56.20
19248;DHT22;9758;48.640;8.148;2024-02-21T13:46:56;14.30;56.30
19248;DHT22;9758;48.640;8.148;2024-02-21T13:49:23;14.40;56.40
19248;DHT22;9758;48.640;8.148;2024-02-21T13:51:50;14.40;56.10
19248;DHT22;9758;48.640;8.148;2024-02-21T13:54:16;14.50;55.80
19248;DHT22;9758;48.640;8.148;2024-02-21T13:56:46;14.40;55.80
19248;DHT22;9758;48.640;8.148;2024-02-21T13:59:12;14.40;55.70
19248;DHT22;9758;48.640;8.148;2024-02-21T14:01:39;14.40;55.80
19248;DHT22;9758;48.640;8.148;2024-02-21T14:04:06;14.30;55.90
19248;DHT22;9758;48.640;8.148;2024-02-21T14:06:33;14.30;55.80
19248;DHT22;9758;48.640;8.148;2024-02-21T14:09:00;14.30;55.90
19248;DHT22;9758;48.640;8.148;2024-02-21T14:11:26;14.20;56.00
19248;DHT22;9758;48.640;8.148;2024-02-21T14:13:54;14.30;56.20
19248;DHT22;9758;48.640;8.148;2024-02-21T14:16:22;14.30;56.10
19248;DHT22;9758;48.640;8.148;2024-02-21T14:18:49;14.40;56.20
19248;DHT22;9758;48.640;8.148;2024-02-21T14:21:16;14.40;56.00
19248;DHT22;9758;48.640;8.148;2024-02-21T14:23:43;14.50;56.00
19248;DHT22;9758;48.640;8.148;2024-02-21T14:26:10;14.60;55.80
19248;DHT22;9758;48.640;8.148;2024-02-21T14:28:37;14.60;54.90
19248;DHT22;9758;48.640;8.148;2024-02-21T14:31:05;14.60;54.80
19248;DHT22;9758;48.640;8.148;2024-02-21T14:33:34;14.70;55.20
19248;DHT22;9758;48.640;8.148;2024-02-21T14:36:01;14.70;55.00
19248;DHT22;9758;48.640;8.148;2024-02-21T14:38:28;14.80;55.00
19248;DHT22;9758;48.640;8.148;2024-02-21T14:40:55;14.80;54.90
19248;DHT22;9758;48.640;8.148;2024-02-21T14:43:21;14.80;54.50
19248;DHT22;9758;48.640;8.148;2024-02-21T14:45:48;14.90;54.70
19248;DHT22;9758;48.640;8.148;2024-02-21T14:48:17;14.90;54.60
19248;DHT22;9758;48.640;8.148;2024-02-21T14:50:44;14.90;54.40
19248;DHT22;9758;48.640;8.148;2024-02-21T14:53:10;15.00;54.40
19248;DHT22;9758;48.640;8.148;2024-02-21T14:55:37;15.00;54.30
19248;DHT22;9758;48.640;8.148;2024-02-21T14:58:06;14.90;54.10
19248;DHT22;9758;48.640;8.148;2024-02-21T15:00:33;15.00;54.20
19248;DHT22;9758;48.640;8.148;2024-02-21T15:03:00;15.00;54.20
19248;DHT22;9758;48.640;8.148;2024-02-21T15:05:28;15.00;54.30
19248;DHT22;9758;48.640;8.148;2024-02-21T15:07:56;15.00;53.80
19248;DHT22;9758;48.640;8.148;2024-02-21T15:10:23;15.00;53.80
19248;DHT22;9758;48.640;8.148;2024-02-21T15:12:50;15.00;53.90
19248;DHT22;9758;48.640;8.148;2024-02-21T15:15:26;15.00;53.80
19248;DHT22;9758;48.640;8.148;2024-02-21T15:17:53;15.00;53.70
19248;DHT22;9758;48.640;8.148;2024-02-21T15:20:20;15.00;53.80
19248;DHT22;9758;48.640;8.148;2024-02-21T15:22:48;14.90;53.50
19248;DHT22;9758;48.640;8.148;2024-02-21T15:25:14;14.90;53.70
19248;DHT22;9758;48.640;8.148;2024-02-21T15:27:55;14.80;53.60
19248;DHT22;9758;48.640;8.148;2024-02-21T15:30:21;14.80;53.50
19248;DHT22;9758;48.640;8.148;2024-02-21T15:32:48;14.80;53.60
19248;DHT22;9758;48.640;8.148;2024-02-21T15:35:47;14.80;53.60
19248;DHT22;9758;48.640;8.148;2024-02-21T15:38:15;14.70;52.90
19248;DHT22;9758;48.640;8.148;2024-02-21T15:40:42;14.70;53.50
19248;DHT22;9758;48.640;8.148;2024-02-21T15:43:08;14.60;53.40
19248;DHT22;9758;48.640;8.148;2024-02-21T15:45:35;14.60;51.80
19248;DHT22;9758;48.640;8.148;2024-02-21T15:48:05;14.50;52.40
19248;DHT22;9758;48.640;8.148;2024-02-21T15:50:32;14.50;53.00
19248;DHT22;9758;48.640;8.148;2024-02-21T15:52:59;14.40;53.10
19248;DHT22;9758;48.640;8.148;2024-02-21T15:55:28;14.40;52.70
19248;DHT22;9758;48.640;8.148;2024-02-21T15:57:55;14.40;52.90